createdAt,value
2018-09-09T00:00:43.276Z,9.00
2018-09-09T00:03:12.005Z,8.63
2018-09-09T00:05:40.753Z,9.87
2018-09-09T00:08:09.455Z,10.63
2018-09-09T00:10:38.040Z,9.67
2018-09-09T00:13:07.021Z,9.80
2018-09-09T00:15:35.616Z,12.17
2018-09-09T00:18:04.335Z,9.50
2018-09-09T00:20:33.035Z,9.77
2018-09-09T00:23:01.719Z,12.17
2018-09-09T00:25:30.404Z,11.20
2018-09-09T00:27:58.983Z,11.20
2018-09-09T00:30:27.644Z,13.17
2018-09-09T00:32:56.346Z,11.03
2018-09-09T00:35:27.304Z,11.27
2018-09-09T00:37:56.629Z,10.57
2018-09-09T00:40:25.786Z,11.87
2018-09-09T00:42:54.556Z,11.20
2018-09-09T00:45:23.315Z,11.60
2018-09-09T00:47:51.961Z,10.90
2018-09-09T00:50:25.896Z,9.73
2018-09-09T00:52:59.930Z,9.63
2018-09-09T00:55:29.075Z,10.77
2018-09-09T00:57:57.926Z,10.77
2018-09-09T01:00:31.800Z,11.53
2018-09-09T01:03:00.400Z,10.37
2018-09-09T01:05:29.241Z,10.33
2018-09-09T01:07:58.272Z,10.77
2018-09-09T01:10:26.956Z,11.37
2018-09-09T01:12:56.311Z,11.57
2018-09-09T01:15:25.028Z,10.53
2018-09-09T01:17:53.836Z,10.23
2018-09-09T01:20:22.844Z,10.57
2018-09-09T01:22:51.430Z,10.03
2018-09-09T01:25:20.175Z,9.53
2018-09-09T01:27:48.933Z,10.00
2018-09-09T01:30:17.642Z,10.73
2018-09-09T01:32:46.257Z,11.57
2018-09-09T01:35:14.908Z,11.20
2018-09-09T01:37:43.678Z,10.67
2018-09-09T01:40:12.352Z,10.70
2018-09-09T01:42:40.997Z,11.53
2018-09-09T01:45:09.676Z,11.43
2018-09-09T01:47:38.284Z,13.80
2018-09-09T01:50:06.980Z,12.67
2018-09-09T01:52:35.580Z,11.83
2018-09-09T01:55:04.266Z,10.83
2018-09-09T01:57:32.848Z,11.00
2018-09-09T02:00:01.489Z,10.47
2018-09-09T02:02:30.197Z,10.87
2018-09-09T02:04:59.032Z,10.73
2018-09-09T02:07:27.784Z,10.67
2018-09-09T02:09:56.544Z,11.73
2018-09-09T02:12:25.208Z,10.73
2018-09-09T02:14:53.896Z,11.63
2018-09-09T02:17:22.490Z,9.80
2018-09-09T02:19:51.108Z,11.20
2018-09-09T02:22:19.699Z,11.50
2018-09-09T02:24:48.412Z,10.17
2018-09-09T02:27:17.184Z,10.10
2018-09-09T02:29:46.291Z,10.17
2018-09-09T02:32:14.921Z,12.20
2018-09-09T02:34:43.580Z,10.73
2018-09-09T02:37:12.365Z,10.33
2018-09-09T02:39:41.139Z,10.27
2018-09-09T02:42:09.747Z,10.20
2018-09-09T02:44:38.481Z,12.33
2018-09-09T02:47:07.208Z,11.93
2018-09-09T02:49:35.845Z,11.00
2018-09-09T02:52:04.720Z,10.17
2018-09-09T02:54:33.413Z,14.53
2018-09-09T02:57:02.100Z,11.40
2018-09-09T02:59:30.853Z,10.57
2018-09-09T03:01:59.528Z,11.03
2018-09-09T03:04:28.276Z,11.10
2018-09-09T03:06:57.232Z,11.00
2018-09-09T03:09:25.949Z,10.50
2018-09-09T03:11:54.631Z,10.90
2018-09-09T03:14:23.244Z,11.50
2018-09-09T03:16:51.891Z,11.60
2018-09-09T03:19:20.505Z,11.63
2018-09-09T03:21:49.140Z,12.27
2018-09-09T03:24:17.741Z,12.03
2018-09-09T03:26:46.351Z,13.63
2018-09-09T03:29:14.986Z,11.73
2018-09-09T03:31:43.656Z,13.43
2018-09-09T03:34:12.552Z,13.20
2018-09-09T03:36:41.157Z,12.13
2018-09-09T03:39:10.312Z,13.37
2018-09-09T03:41:39.108Z,14.10
2018-09-09T03:44:08.178Z,14.70
2018-09-09T03:46:36.861Z,12.37
2018-09-09T03:49:05.552Z,13.10
2018-09-09T03:51:34.648Z,11.30
2018-09-09T03:54:03.281Z,11.67
2018-09-09T03:56:31.868Z,13.73
2018-09-09T03:59:00.656Z,14.30
2018-09-09T04:01:29.402Z,11.40
2018-09-09T04:03:58.115Z,10.57
2018-09-09T04:06:26.920Z,12.20
2018-09-09T04:08:55.545Z,13.03
2018-09-09T04:11:24.220Z,11.87
2018-09-09T04:13:52.891Z,11.80
2018-09-09T04:16:21.621Z,11.00
2018-09-09T04:18:50.344Z,12.00
2018-09-09T04:21:20.113Z,11.50
2018-09-09T04:23:48.803Z,12.97
2018-09-09T04:26:17.400Z,12.07
2018-09-09T04:28:46.042Z,10.80
2018-09-09T04:31:14.756Z,10.87
2018-09-09T04:33:44.041Z,11.50
2018-09-09T04:36:12.652Z,10.60
2018-09-09T04:38:41.741Z,12.07
2018-09-09T04:41:10.520Z,12.47
2018-09-09T04:43:39.173Z,10.83
2018-09-09T04:46:07.756Z,12.97
2018-09-09T04:48:36.939Z,10.13
2018-09-09T04:51:05.545Z,12.60
2018-09-09T04:53:34.128Z,14.37
2018-09-09T04:56:02.810Z,9.97
2018-09-09T04:58:32.028Z,10.20
2018-09-09T05:01:00.676Z,13.23
2018-09-09T05:03:29.255Z,10.27
2018-09-09T05:05:57.844Z,10.27
2018-09-09T05:08:26.460Z,10.73
2018-09-09T05:10:55.067Z,10.00
2018-09-09T05:13:23.680Z,10.53
2018-09-09T05:15:52.564Z,11.83
2018-09-09T05:18:21.182Z,11.40
2018-09-09T05:20:49.820Z,10.37
2018-09-09T05:23:18.400Z,10.33
2018-09-09T05:25:47.003Z,10.83
2018-09-09T05:28:15.587Z,10.53
2018-09-09T05:30:44.212Z,10.30
2018-09-09T05:33:12.867Z,11.80
2018-09-09T05:35:41.470Z,14.10
2018-09-09T05:38:10.133Z,10.63
2018-09-09T05:40:39.045Z,9.37
2018-09-09T05:43:07.640Z,12.83
2018-09-09T05:45:36.276Z,10.30
2018-09-09T05:48:05.256Z,10.40
2018-09-09T05:50:33.917Z,10.90
2018-09-09T05:53:03.128Z,10.47
2018-09-09T05:55:32.537Z,11.93
2018-09-09T05:58:01.930Z,18.63
2018-09-09T06:00:30.522Z,12.90
2018-09-09T06:02:59.120Z,12.63
2018-09-09T06:05:27.748Z,12.30
2018-09-09T06:07:56.442Z,11.87
2018-09-09T06:10:25.101Z,13.27
2018-09-09T06:12:53.773Z,17.87
2018-09-09T06:15:22.433Z,19.23
2018-09-09T06:17:51.020Z,17.83
2018-09-09T06:20:19.637Z,17.13
2018-09-09T06:22:48.328Z,13.27
2018-09-09T06:25:17.014Z,15.60
2018-09-09T06:27:45.685Z,15.73
2018-09-09T06:30:14.280Z,14.07
2018-09-09T06:32:42.992Z,14.57
2018-09-09T06:35:11.624Z,16.93
2018-09-09T06:37:40.240Z,16.80
2018-09-09T06:40:08.835Z,15.57
2018-09-09T06:42:37.511Z,16.13
2018-09-09T06:45:06.501Z,17.63
2018-09-09T06:47:35.248Z,16.00
2018-09-09T06:50:03.885Z,15.53
2018-09-09T06:52:32.581Z,15.60
2018-09-09T06:55:01.199Z,15.23
2018-09-09T06:57:30.807Z,17.77
2018-09-09T06:59:59.516Z,16.37
2018-09-09T07:02:28.779Z,15.13
2018-09-09T07:04:58.189Z,16.93
2018-09-09T07:07:27.377Z,14.98
2018-09-09T07:09:57.100Z,14.73
2018-09-09T07:12:26.445Z,15.25
2018-09-09T07:14:55.736Z,14.07
2018-09-09T07:17:25.148Z,14.15
2018-09-09T07:19:54.568Z,13.95
2018-09-09T07:22:23.856Z,14.87
2018-09-09T07:24:53.059Z,15.98
2018-09-09T07:27:22.225Z,14.87
2018-09-09T07:29:51.577Z,15.50
2018-09-09T07:32:20.761Z,15.25
2018-09-09T07:34:49.934Z,15.20
2018-09-09T07:37:19.208Z,14.23
2018-09-09T07:39:48.593Z,14.80
2018-09-09T07:42:17.956Z,15.32
2018-09-09T07:44:48.177Z,15.38
2018-09-09T07:47:17.454Z,15.00
2018-09-09T07:49:46.760Z,14.53
2018-09-09T07:52:16.063Z,16.15
2018-09-09T07:54:46.421Z,15.65
2018-09-09T07:57:16.360Z,16.80
2018-09-09T07:59:45.701Z,16.40
2018-09-09T08:02:15.353Z,16.35
2018-09-09T08:04:44.532Z,15.70
2018-09-09T08:07:13.768Z,15.90
2018-09-09T08:09:43.216Z,16.23
2018-09-09T08:12:12.640Z,14.47
2018-09-09T08:14:42.044Z,14.47
2018-09-09T08:17:11.329Z,15.80
2018-09-09T08:19:40.504Z,15.05
2018-09-09T08:22:09.749Z,17.17
2018-09-09T08:24:39.431Z,14.50
2018-09-09T08:27:09.177Z,15.10
2018-09-09T08:29:38.417Z,13.60
2018-09-09T08:32:07.408Z,13.30
2018-09-09T08:34:36.661Z,14.13
2018-09-09T08:37:05.877Z,12.33
2018-09-09T08:39:35.165Z,12.45
2018-09-09T08:42:04.424Z,11.93
2018-09-09T08:44:33.613Z,11.90
2018-09-09T08:47:02.803Z,12.40
2018-09-09T08:49:31.969Z,10.80
2018-09-09T08:52:01.253Z,11.10
2018-09-09T08:54:30.547Z,11.70
2018-09-09T08:56:59.719Z,10.82
2018-09-09T08:59:28.901Z,10.32
2018-09-09T09:01:58.084Z,9.90
2018-09-09T09:04:27.287Z,7.83
2018-09-09T09:06:56.664Z,8.73
2018-09-09T09:09:25.834Z,7.25
2018-09-09T09:11:55.016Z,8.38
2018-09-09T09:14:24.244Z,10.05
2018-09-09T09:16:53.496Z,8.08
2018-09-09T09:19:22.773Z,8.28
2018-09-09T09:21:52.105Z,8.30
2018-09-09T09:24:21.287Z,7.20
2018-09-09T09:26:50.510Z,7.22
2018-09-09T09:29:19.763Z,6.15
2018-09-09T09:31:48.971Z,7.53
2018-09-09T09:34:18.127Z,6.92
2018-09-09T09:36:47.471Z,7.08
2018-09-09T09:39:16.744Z,6.70
2018-09-09T09:41:46.124Z,7.72
2018-09-09T09:44:15.409Z,6.40
2018-09-09T09:46:44.590Z,6.40
2018-09-09T09:49:13.755Z,5.83
2018-09-09T09:51:42.968Z,5.55
2018-09-09T09:54:12.198Z,4.92
2018-09-09T09:56:41.428Z,5.10
2018-09-09T09:59:10.642Z,4.47
2018-09-09T10:01:39.827Z,4.65
2018-09-09T10:04:09.151Z,6.00
2018-09-09T10:06:40.036Z,5.53
2018-09-09T10:09:09.498Z,5.47
2018-09-09T10:11:39.012Z,5.83
2018-09-09T10:14:08.186Z,7.00
2018-09-09T10:16:37.408Z,5.28
2018-09-09T10:19:06.594Z,4.25
2018-09-09T10:21:35.808Z,5.70
2018-09-09T10:24:05.041Z,4.53
2018-09-09T10:26:34.220Z,4.67
2018-09-09T10:29:03.460Z,6.28
2018-09-09T10:31:32.660Z,4.70
2018-09-09T10:34:01.975Z,5.30
2018-09-09T10:36:31.414Z,4.95
2018-09-09T10:39:00.598Z,4.90
2018-09-09T10:41:29.870Z,4.45
2018-09-09T10:43:59.053Z,5.10
2018-09-09T10:46:28.340Z,5.10
2018-09-09T10:48:57.923Z,3.40
2018-09-09T10:51:27.096Z,4.40
2018-09-09T10:53:56.373Z,4.22
2018-09-09T10:56:25.627Z,4.80
2018-09-09T10:58:54.843Z,5.10
2018-09-09T11:01:24.444Z,5.15
2018-09-09T11:03:53.636Z,5.83
2018-09-09T11:06:22.868Z,4.12
2018-09-09T11:08:52.053Z,4.03
2018-09-09T11:11:21.245Z,6.00
2018-09-09T11:13:50.523Z,4.70
2018-09-09T11:16:19.726Z,4.05
2018-09-09T11:18:48.928Z,4.37
2018-09-09T11:21:18.101Z,4.25
2018-09-09T11:23:47.258Z,3.40
2018-09-09T11:26:16.480Z,6.33
2018-09-09T11:28:45.673Z,4.47
2018-09-09T11:31:14.892Z,3.10
2018-09-09T11:33:44.172Z,3.17
2018-09-09T11:36:14.604Z,3.58
2018-09-09T11:38:44.175Z,3.15
2018-09-09T11:41:13.612Z,2.65
2018-09-09T11:43:42.858Z,2.75
2018-09-09T11:46:12.072Z,3.27
2018-09-09T11:48:41.285Z,3.12
2018-09-09T11:51:10.507Z,2.90
2018-09-09T11:53:39.767Z,2.55
2018-09-09T11:56:08.976Z,2.77
2018-09-09T11:58:38.328Z,4.72
2018-09-09T12:01:07.976Z,3.50
2018-09-09T12:03:37.280Z,3.52
2018-09-09T12:06:06.964Z,3.77
2018-09-09T12:08:37.230Z,3.15
2018-09-09T12:11:06.758Z,2.92
2018-09-09T12:13:35.979Z,5.83
2018-09-09T12:16:05.319Z,3.45
2018-09-09T12:18:34.511Z,4.42
2018-09-09T12:21:03.758Z,3.05
2018-09-09T12:23:33.166Z,3.37
2018-09-09T12:26:02.567Z,3.87
2018-09-09T12:28:31.807Z,3.60
2018-09-09T12:31:01.011Z,3.02
2018-09-09T12:33:30.277Z,2.60
2018-09-09T12:35:59.591Z,3.15
2018-09-09T12:38:29.484Z,3.72
2018-09-09T12:40:58.723Z,3.37
2018-09-09T12:44:32.901Z,2.85
2018-09-09T12:47:07.548Z,5.25
2018-09-09T12:49:37.319Z,4.00
2018-09-09T12:52:06.873Z,3.02
2018-09-09T12:54:36.129Z,3.77
2018-09-09T12:57:06.597Z,3.33
2018-09-09T12:59:35.900Z,3.02
2018-09-09T13:02:05.298Z,3.47
2018-09-09T13:04:34.736Z,3.10
2018-09-09T13:07:04.176Z,2.75
2018-09-09T13:09:33.404Z,2.90
2018-09-09T13:12:02.672Z,3.40
2018-09-09T13:14:31.849Z,3.22
2018-09-09T13:17:01.120Z,3.40
2018-09-09T13:19:30.349Z,3.45
2018-09-09T13:21:59.573Z,3.65
2018-09-09T13:24:28.896Z,4.10
2018-09-09T13:26:58.126Z,3.40
2018-09-09T13:29:28.207Z,3.65
2018-09-09T13:31:57.472Z,4.60
2018-09-09T13:34:27.031Z,3.30
2018-09-09T13:36:56.281Z,3.00
2018-09-09T13:39:25.472Z,4.17
2018-09-09T13:41:54.721Z,3.17
2018-09-09T13:44:23.973Z,3.20
2018-09-09T13:46:53.346Z,3.75
2018-09-09T13:49:22.672Z,3.30
2018-09-09T13:51:52.215Z,3.10
2018-09-09T13:54:21.392Z,4.85
2018-09-09T13:56:50.730Z,3.27
2018-09-09T13:59:19.972Z,2.87
2018-09-09T14:01:49.174Z,3.33
2018-09-09T14:04:18.629Z,3.15
2018-09-09T14:06:47.857Z,3.98
2018-09-09T14:09:17.103Z,6.33
2018-09-09T14:11:46.300Z,3.50
2018-09-09T14:14:15.784Z,3.10
2018-09-09T14:16:44.970Z,3.22
2018-09-09T14:19:14.559Z,2.80
2018-09-09T14:21:43.812Z,3.27
2018-09-09T14:24:13.096Z,3.75
2018-09-09T14:26:42.330Z,2.90
2018-09-09T14:29:13.697Z,3.15
2018-09-09T14:31:43.267Z,3.22
2018-09-09T14:34:12.586Z,3.65
2018-09-09T14:36:42.049Z,2.70
2018-09-09T14:39:11.461Z,2.83
2018-09-09T14:41:40.670Z,3.58
2018-09-09T14:44:09.914Z,3.72
2018-09-09T14:46:39.141Z,3.00
2018-09-09T14:49:10.138Z,2.87
2018-09-09T14:51:40.378Z,3.02
2018-09-09T14:54:16.968Z,3.40
2018-09-09T14:56:46.532Z,2.67
2018-09-09T14:59:15.796Z,3.17
2018-09-09T15:01:46.221Z,3.77
2018-09-09T15:04:15.897Z,3.27
2018-09-09T15:06:45.231Z,2.90
2018-09-09T15:09:14.556Z,3.15
2018-09-09T15:11:43.836Z,2.70
2018-09-09T15:14:13.053Z,2.47
2018-09-09T15:16:42.249Z,2.67
2018-09-09T15:19:11.589Z,2.87
2018-09-09T15:21:40.784Z,3.40
2018-09-09T15:24:10.005Z,3.12
2018-09-09T15:26:39.537Z,4.30
2018-09-09T15:29:08.692Z,3.10
2018-09-09T15:31:37.933Z,2.80
2018-09-09T15:34:07.188Z,3.65
2018-09-09T15:36:36.581Z,2.95
2018-09-09T15:39:06.857Z,2.98
2018-09-09T15:41:36.234Z,3.10
2018-09-09T15:44:05.908Z,3.52
2018-09-09T15:46:35.497Z,5.10
2018-09-09T15:49:04.730Z,3.02
2018-09-09T15:51:34.771Z,3.10
2018-09-09T15:54:04.084Z,3.08
2018-09-09T15:56:36.308Z,3.42
2018-09-09T15:59:05.781Z,3.02
2018-09-09T16:01:35.017Z,2.92
2018-09-09T16:04:04.242Z,3.37
2018-09-09T16:06:33.479Z,3.58
2018-09-09T16:09:02.847Z,3.95
2018-09-09T16:11:32.013Z,3.08
2018-09-09T16:14:08.017Z,2.90
2018-09-09T16:16:37.261Z,3.00
2018-09-09T16:19:07.856Z,3.00
2018-09-09T16:21:37.020Z,3.85
2018-09-09T16:24:06.208Z,3.10
2018-09-09T16:26:35.417Z,2.98
2018-09-09T16:29:04.838Z,2.70
2018-09-09T16:31:34.015Z,2.77
2018-09-09T16:34:07.452Z,3.35
2018-09-09T16:36:37.075Z,3.00
2018-09-09T16:39:07.888Z,13.65
2018-09-09T16:41:37.360Z,13.78
2018-09-09T16:44:06.765Z,3.40
2018-09-09T16:46:35.978Z,3.50
2018-09-09T16:49:05.416Z,4.58
2018-09-09T16:51:34.627Z,5.50
2018-09-09T16:54:04.184Z,3.00
2018-09-09T16:56:33.336Z,3.58
2018-09-09T16:59:02.516Z,3.80
2018-09-09T17:01:31.692Z,3.75
2018-09-09T17:04:01.041Z,3.92
2018-09-09T17:06:31.322Z,4.12
2018-09-09T17:09:01.602Z,4.42
2018-09-09T17:11:30.804Z,7.30
2018-09-09T17:14:00.051Z,4.97
2018-09-09T17:16:29.277Z,7.12
2018-09-09T17:18:58.465Z,4.42
2018-09-09T17:21:27.680Z,5.37
2018-09-09T17:23:56.865Z,3.83
2018-09-09T17:26:26.040Z,6.45
2018-09-09T17:28:55.226Z,5.80
2018-09-09T17:31:24.426Z,8.03
2018-09-09T17:33:53.641Z,6.28
2018-09-09T17:36:22.846Z,6.37
2018-09-09T17:38:51.913Z,5.83
2018-09-09T17:41:20.622Z,8.03
2018-09-09T17:43:49.284Z,8.87
2018-09-09T17:46:18.112Z,6.87
2018-09-09T17:48:46.721Z,12.90
2018-09-09T17:51:15.337Z,20.07
2018-09-09T17:53:43.942Z,14.97
2018-09-09T17:56:12.544Z,15.97
2018-09-09T17:58:41.184Z,14.13
2018-09-09T18:01:09.789Z,13.20
2018-09-09T18:03:38.403Z,9.00
2018-09-09T18:06:07.044Z,7.50
2018-09-09T18:08:35.624Z,8.33
2018-09-09T18:11:04.325Z,11.97
2018-09-09T18:13:33.117Z,7.40
2018-09-09T18:16:01.708Z,8.93
2018-09-09T18:18:30.315Z,10.93
2018-09-09T18:20:58.929Z,13.00
2018-09-09T18:23:27.569Z,23.10
2018-09-09T18:25:56.241Z,24.07
2018-09-09T18:28:24.885Z,16.27
2018-09-09T18:30:53.484Z,12.80
2018-09-09T18:33:22.112Z,16.63
2018-09-09T18:35:50.746Z,14.17
2018-09-09T18:38:19.345Z,11.07
2018-09-09T18:40:48.004Z,11.30
2018-09-09T18:43:16.612Z,9.77
2018-09-09T18:45:45.224Z,8.27
2018-09-09T18:48:13.891Z,9.03
2018-09-09T18:50:42.496Z,8.20
2018-09-09T18:53:11.100Z,8.83
2018-09-09T18:55:39.840Z,7.40
2018-09-09T18:58:08.425Z,8.03
2018-09-09T19:00:37.075Z,10.20
2018-09-09T19:03:05.669Z,8.20
2018-09-09T19:05:34.269Z,12.47
2018-09-09T19:08:02.881Z,7.10
2018-09-09T19:10:31.469Z,8.87
2018-09-09T19:13:00.144Z,7.83
2018-09-09T19:15:28.765Z,6.90
2018-09-09T19:17:57.425Z,8.10
2018-09-09T19:20:26.029Z,9.30
2018-09-09T19:22:54.632Z,7.07
2018-09-09T19:25:23.313Z,7.23
2018-09-09T19:27:51.897Z,5.97
2018-09-09T19:30:20.481Z,6.30
2018-09-09T19:32:49.110Z,6.37
2018-09-09T19:35:17.725Z,6.17
2018-09-09T19:37:46.354Z,6.70
2018-09-09T19:40:14.944Z,6.97
2018-09-09T19:42:43.561Z,6.93
2018-09-09T19:45:12.202Z,5.50
2018-09-09T19:47:40.835Z,6.37
2018-09-09T19:50:09.844Z,7.10
2018-09-09T19:52:38.669Z,5.77
2018-09-09T19:55:07.305Z,5.60
2018-09-09T19:57:36.024Z,7.93
2018-09-09T20:00:04.714Z,7.47
2018-09-09T20:02:33.406Z,6.43
2018-09-09T20:05:02.029Z,6.47
2018-09-09T20:07:30.626Z,6.43
2018-09-09T20:09:59.280Z,6.23
2018-09-09T20:12:27.893Z,6.20
2018-09-09T20:14:56.584Z,5.43
2018-09-09T20:17:25.293Z,5.70
2018-09-09T20:19:53.999Z,6.40
2018-09-09T20:22:22.673Z,5.57
2018-09-09T20:24:51.384Z,6.43
2018-09-09T20:27:20.011Z,6.80
2018-09-09T20:29:48.620Z,6.37
2018-09-09T20:32:17.244Z,6.37
2018-09-09T20:34:45.827Z,7.87
2018-09-09T20:37:14.432Z,5.90
2018-09-09T20:39:43.041Z,7.43
2018-09-09T20:42:11.628Z,6.80
2018-09-09T20:44:40.240Z,6.23
2018-09-09T20:47:08.875Z,5.53
2018-09-09T20:49:37.507Z,6.30
2018-09-09T20:52:07.075Z,5.63
2018-09-09T20:54:35.682Z,5.63
2018-09-09T20:57:04.302Z,7.00
2018-09-09T20:59:32.968Z,7.73
2018-09-09T21:02:01.609Z,7.20
2018-09-09T21:04:30.628Z,7.87
2018-09-09T21:06:59.280Z,7.63
2018-09-09T21:09:27.908Z,6.53
2018-09-09T21:11:56.510Z,5.37
2018-09-09T21:14:25.115Z,5.20
2018-09-09T21:16:53.740Z,4.90
2018-09-09T21:19:22.326Z,8.30
2018-09-09T21:21:50.983Z,5.37
2018-09-09T21:24:19.589Z,5.63
2018-09-09T21:26:48.179Z,6.43
2018-09-09T21:29:16.816Z,6.93
2018-09-09T21:31:45.446Z,5.20
2018-09-09T21:34:14.060Z,6.40
2018-09-09T21:36:42.775Z,7.30
2018-09-09T21:39:11.998Z,6.90
2018-09-09T21:41:41.348Z,8.77
2018-09-09T21:44:10.008Z,5.07
2018-09-09T21:46:38.983Z,6.03
2018-09-09T21:49:07.778Z,6.30
2018-09-09T21:51:36.380Z,5.43
2018-09-09T21:54:05.551Z,8.03
2018-09-09T21:56:34.646Z,6.70
2018-09-09T21:59:03.285Z,10.53
2018-09-09T22:01:37.107Z,5.27
2018-09-09T22:04:06.070Z,5.73
2018-09-09T22:06:34.716Z,6.30
2018-09-09T22:09:04.597Z,6.57
2018-09-09T22:11:33.825Z,6.53
2018-09-09T22:14:02.425Z,6.10
2018-09-09T22:16:31.020Z,8.03
2018-09-09T22:18:59.719Z,7.30
2018-09-09T22:21:28.404Z,7.03
2018-09-09T22:23:57.035Z,6.13
2018-09-09T22:26:25.761Z,5.30
2018-09-09T22:28:54.414Z,5.97
2018-09-09T22:31:23.220Z,10.13
2018-09-09T22:33:52.142Z,10.40
2018-09-09T22:36:20.773Z,6.63
2018-09-09T22:38:49.435Z,9.63
2018-09-09T22:41:18.073Z,6.17
2018-09-09T22:43:46.741Z,6.30
2018-09-09T22:46:15.419Z,6.30
2018-09-09T22:48:44.096Z,5.83
2018-09-09T22:51:12.838Z,7.43
2018-09-09T22:53:41.446Z,7.33
2018-09-09T22:56:10.064Z,6.63
2018-09-09T22:58:38.658Z,5.87
2018-09-09T23:01:07.249Z,6.70
2018-09-09T23:03:35.878Z,9.77
2018-09-09T23:06:05.009Z,8.47
2018-09-09T23:08:33.646Z,7.60
2018-09-09T23:11:02.445Z,6.00
2018-09-09T23:13:31.147Z,5.97
2018-09-09T23:15:59.874Z,5.83
2018-09-09T23:18:28.471Z,6.53
2018-09-09T23:20:57.131Z,6.30
2018-09-09T23:23:25.784Z,6.83
2018-09-09T23:25:54.482Z,5.73
2018-09-09T23:28:23.214Z,7.93
2018-09-09T23:30:51.821Z,6.20
2018-09-09T23:33:20.488Z,6.77
2018-09-09T23:35:49.221Z,7.17
2018-09-09T23:38:18.505Z,8.13
2018-09-09T23:40:47.436Z,7.73
2018-09-09T23:43:16.132Z,6.63
2018-09-09T23:45:44.890Z,8.17
2018-09-09T23:48:14.448Z,6.90
2018-09-09T23:50:43.105Z,8.07
2018-09-09T23:53:11.816Z,7.70
2018-09-09T23:55:40.509Z,8.07
2018-09-09T23:58:09.207Z,6.73
